GW2364 Weather Reports


time (UTC)temp
F
wind
direction
speed
knots
gust
knots
rain 1hr
in
rain 24hr
in
rain mn
in
humidity
%
barometer
mb
20240420163002 66 360 4.3 10.4 0.00 0.00 0.00 91 1015.5
20240420161502 66 22 6.1 11.3 0.00 0.00 0.00 91 1015.6
20240420160005 66 360 3.5 8.7 0.00 0.00 0.00 91 1015.6
20240420154503 65 11 6.1 10.4 0.00 0.00 0.00 92 1015.8
20240420153002 65 5 2.6 7.8 0.00 0.00 0.00 92 1016.0
20240420151501 66 360 2.6 9.6 0.00 0.00 0.00 92 1015.8
20240420150004 67 338 4.3 11.3 0.00 0.00 0.00 91 1015.4
20240420144502 67 292 1.7 3.5 0.00 0.00 0.00 92 1015.8
20240420143002 66 282 0.0 2.6 0.00 0.00 0.00 93 1016.0
20240420141504 66 17 0.0 2.6 0.00 0.00 0.00 94 1016.0
20240420140005 65 273 0.0 2.6 0.00 0.00 0.00 95 1016.2
20240420134502 65 280 0.0 2.6 0.00 0.00 0.00 94 1016.4
20240420133002 65 5 0.0 2.6 0.00 0.00 0.00 94 1016.1
20240420131502 65 292 0.0 2.6 0.00 0.00 0.00 94 1015.8
20240420130004 64 298 0.0 1.7 0.00 0.00 0.00 94 1015.7
20240420124506 64 15 0.9 3.5 0.00 0.00 0.00 94 1015.4
20240420123005 64 26 1.7 5.2 0.00 0.00 0.00 94 1014.6
20240420121602 64 51 1.7 4.3 0.00 0.00 0.00 94 1014.5
20240420120003 64 31 1.7 5.2 0.00 0.00 0.00 94 1014.4
20240420114600 64 37 0.9 4.3 0.00 0.00 0.00 94 1014.5
20240420113108 64 84 0.9 3.5 0.00 0.00 0.00 94 1014.4
20240420113003 64 36 0.9 3.5 0.00 0.00 0.00 94 1014.5
20240420111600 63 26 1.7 4.3 0.00 0.00 0.00 94 1014.4
20240420111501 63 26 0.9 3.5 0.00 0.00 0.00 94 1014.4
20240420110006 63 28 0.9 2.6 0.00 0.00 0.00 94 1014.3
20240420104505 63 34 0.9 4.3 0.00 0.00 0.00 94 1014.6
20240420103001 63 15 1.7 4.3 0.00 0.00 0.00 94 1014.4
20240420101602 63 30 1.7 5.2 0.00 0.00 0.00 93 1014.2
20240420101501 63 40 1.7 5.2 0.00 0.00 0.00 93 1014.1
20240420100002 63 68 1.7 7.8 0.00 0.00 0.00 93 1014.1
20240420094502 63 32 2.6 7.0 0.00 0.00 0.00 92 1014.2
20240420093001 63 40 2.6 7.8 0.00 0.00 0.00 92 1014.2
20240420091504 63 25 1.7 4.3 0.00 0.00 0.00 92 1014.3
20240420090003 63 53 0.9 5.2 0.00 0.00 0.00 93 1014.3
20240420084504 63 5 0.9 5.2 0.00 0.00 0.00 93 1014.5
20240420083001 63 41 2.6 7.0 0.00 0.00 0.00 92 1014.8
20240420081502 63 21 1.7 3.5 0.00 0.00 0.00 91 1015.1
20240420080002 63 23 0.9 3.5 0.00 0.00 0.00 91 1015.7
20240420074608 64 13 1.7 4.3 0.00 0.00 0.00 89 1015.8
20240420073118 65 39 1.7 3.5 0.00 0.00 0.00 86 1016.2
20240420073001 65 32 1.7 3.5 0.00 0.00 0.00 86 1016.3
20240420071600 65 30 1.7 5.2 0.00 0.00 0.00 83 1016.3
20240420070112 65 24 2.6 7.0 0.00 0.00 0.00 83 1016.3
20240420070004 65 5 2.6 7.0 0.00 0.00 0.00 83 1016.3
20240420064611 66 46 0.9 3.5 0.00 0.00 0.00 82 1016.4
20240420063100 66 92 0.9 5.2 0.00 0.00 0.00 82 1016.1
20240420061606 66 355 0.9 5.2 0.00 0.00 0.00 82 1016.0
20240420060100 66 37 0.9 3.5 0.00 0.00 0.00 82 1015.4
20240420060004 66 37 0.9 3.5 0.00 0.00 0.00 81 1015.4
20240420054504 66 32 1.7 7.0 0.00 0.00 0.00 81 1015.4
20240420053003 66 23 2.6 7.8 0.00 0.00 0.00 81 1014.7
20240420051503 66 17 2.6 8.7 0.00 0.00 0.00 81 1014.7
20240420050008 67 28 2.6 7.0 0.00 0.00 0.00 80 1014.7
20240420044503 67 20 2.6 7.8 0.00 0.00 0.00 80 1015.8
20240420043003 67 59 3.5 8.7 0.00 0.00 0.00 79 1016.1
20240420041503 67 333 2.6 7.8 0.00 0.00 0.00 79 1016.3
20240420040005 68 348 3.5 7.8 0.00 0.00 0.00 79 1015.8
20240420034502 68 350 5.2 9.6 0.00 0.00 0.00 78 1015.4
20240420033007 68 60 2.6 8.7 0.00 0.00 0.00 78 1015.2
20240420031502 68 24 1.7 7.0 0.00 0.00 0.00 78 1015.2
20240420030009 69 38 2.6 7.8 0.00 0.00 0.00 78 1015.1
20240420024508 69 44 3.5 8.7 0.00 0.00 0.00 78 1014.9
20240420023002 69 43 3.5 8.7 0.00 0.00 0.00 77 1014.9
20240420021504 69 11 2.6 7.0 0.00 0.00 0.00 77 1014.5
20240420020007 69 16 1.7 7.0 0.00 0.00 0.00 77 1014.5
20240420014503 69 20 2.6 7.0 0.00 0.00 0.00 77 1013.9
20240420013002 70 19 3.5 7.8 0.00 0.00 0.00 76 1013.6
20240420011504 70 28 4.3 7.0 0.00 0.00 0.00 76 1014.0
20240420010004 70 348 2.6 7.8 0.00 0.00 0.00 76 1014.0
20240420004502 70 36 2.6 7.0 0.00 0.00 0.00 75 1013.7
20240420003003 71 23 2.6 7.0 0.00 0.00 0.00 75 1013.5
20240420001502 71 39 2.6 9.6 0.00 0.00 0.00 74 1013.5
20240420000005 71 58 2.6 7.8 0.00 0.00 0.00 74 1013.5
20240419234503 71 18 3.5 8.7 0.00 0.00 0.00 73 1013.6
20240419233002 72 19 4.3 9.6 0.00 0.00 0.00 72 1013.6
20240419231502 71 30 1.7 8.7 0.00 0.00 0.00 74 1013.7
20240419230011 71 19 4.3 10.4 0.00 0.00 0.00 73 1013.6
20240419224505 72 29 2.6 7.0 0.00 0.00 0.00 72 1014.0
20240419223002 72 67 2.6 7.8 0.00 0.00 0.00 71 1014.1
20240419221502 72 49 4.3 10.4 0.00 0.00 0.00 71 1014.0
20240419220004 72 50 2.6 8.7 0.00 0.00 0.00 70 1014.2
20240419214506 73 22 2.6 7.0 0.00 0.00 0.00 69 1014.1
20240419213003 73 5 4.3 7.8 0.00 0.00 0.00 67 1014.1
20240419211502 74 15 4.3 12.2 0.00 0.00 0.00 65 1014.4
20240419210004 74 9 2.6 10.4 0.00 0.00 0.00 66 1014.4
20240419204502 73 16 4.3 10.4 0.00 0.00 0.00 67 1014.5
20240419203008 72 30 4.3 7.8 0.00 0.00 0.00 68 1014.9
20240419201502 72 331 2.6 11.3 0.00 0.00 0.00 68 1015.3
20240419200008 73 22 2.6 8.7 0.00 0.00 0.00 68 1015.8
20240419194502 73 345 3.5 9.6 0.00 0.00 0.00 67 1015.8
20240419193002 72 339 3.5 8.7 0.00 0.00 0.00 68 1015.9
20240419191502 71 344 4.3 10.4 0.00 0.00 0.00 69 1016.1
20240419190004 71 22 6.1 11.3 0.00 0.00 0.00 68 1016.1
20240419184502 71 360 6.1 11.3 0.00 0.00 0.00 69 1016.4
20240419183002 72 44 4.3 10.4 0.00 0.00 0.00 69 1016.5
20240419181503 71 331 4.3 10.4 0.00 0.00 0.00 70 1016.4
20240419180008 71 22 2.6 9.6 0.00 0.00 0.00 71 1016.5
20240419174502 69 326 3.5 10.4 0.00 0.00 0.00 72 1016.7
20240419173002 68 348 1.7 8.7 0.00 0.00 0.00 74 1016.7
20240419171502 67 360 4.3 11.3 0.00 0.00 0.00 74 1016.9
20240419170004 67 330 2.6 9.6 0.00 0.00 0.00 76 1016.9
20240419164502 66 338 3.5 9.6 0.00 0.00 0.00 77 1016.8